Hovedside
METAR-TAF:

METAR-TAF

Lufthavner :

Ljungbyhed, Sverige

breddegrad: 56-04N, lengdegrad: 013-12E, høyde over havet: 43 m

Gjeldene værobservasjon

Denne rapporten ble laget for 33 minutter siden, klokken 19:20 UTC
Vind 5 kt fra Sørøst
Temperatur 20°C
Luftfuktighet 73%
Trykk 1014 hPa
Sikt 10 km eller mer

METAR: ESTL 161920Z AUTO 14005KT 9999 NCD 20/15 Q1014

Tid: 21:53 (19:53 UTC)

Varsel

Denne rapporten ble laget for 8 timer og 55 minutter siden, klokken 10:58 UTC
Varsel gyldig fra 16. klokken 12 UTC til 16. klokken 15 UTC
Vind 12 kt fra Sør-sørvest
Sikt 10 km eller mer
Spredte skyer i en høyde av 4000 ft

TAF: ESTL 161058Z 1612/1615 20012KT 9999 SCT040

Værobservasjoner og værvarsel for over 4000 flyplasser (METAR- og TAF-rapporter).

Tilgjengelige stasjoner er representert av de røde og gule prikkene på kartet.

Hold musepekeren over prikken for å se navnet på stasjonen.

Klikk så for å se værobservasjoner og -varsler.

For å forandre kartet kan du klikke på den grønne knappen med svart kryss for å zoome inn, på den grønne knappen med strek for å zoome ut, eller på de grønne pilene for å se tilstøtende kart.


METAR-TAF: